createdAt,value
2022-08-03T00:01:19.594Z,99068.59
2022-08-03T00:04:06.984Z,99067.88
2022-08-03T00:06:53.550Z,99037.84
2022-08-03T00:09:40.053Z,99026.75
2022-08-03T00:12:26.502Z,99053.34
2022-08-03T00:15:16.355Z,99032.09
2022-08-03T00:18:03.483Z,99012.41
2022-08-03T00:20:49.767Z,99022.03
2022-08-03T00:23:52.373Z,99045.16
2022-08-03T00:26:39.335Z,99036.88
2022-08-03T00:29:25.916Z,99035.88
2022-08-03T00:32:12.174Z,98999.09
2022-08-03T00:34:59.263Z,99044.63
2022-08-03T00:37:45.561Z,99037.91
2022-08-03T00:40:32.151Z,99045.50
2022-08-03T00:43:18.622Z,99021.81
2022-08-03T00:46:04.955Z,99037.19
2022-08-03T00:48:52.172Z,99046.81
2022-08-03T00:51:38.659Z,99038.13
2022-08-03T00:54:25.687Z,99018.56
2022-08-03T00:57:12.177Z,99017.88
2022-08-03T01:00:00.162Z,99020.44
2022-08-03T01:02:47.515Z,98981.06
2022-08-03T01:05:44.299Z,99013.78
2022-08-03T01:08:50.867Z,99021.50
2022-08-03T01:12:00.659Z,99042.25
2022-08-03T01:15:12.312Z,99041.72
2022-08-03T01:18:10.446Z,99020.34
2022-08-03T01:21:00.828Z,98975.72
2022-08-03T01:24:18.286Z,99031.56
2022-08-03T01:27:11.630Z,98995.63
2022-08-03T01:30:09.064Z,99035.97
2022-08-03T01:33:09.352Z,99018.94
2022-08-03T01:36:10.214Z,99005.38
2022-08-03T01:39:00.490Z,99027.63
2022-08-03T01:41:53.793Z,99019.03
2022-08-03T01:44:44.993Z,99017.31
2022-08-03T01:47:32.728Z,98995.91
2022-08-03T01:50:23.014Z,98991.69
2022-08-03T01:53:11.417Z,98953.88
2022-08-03T01:55:59.651Z,98990.81
2022-08-03T01:58:48.276Z,98988.28
2022-08-03T02:02:28.326Z,98986.72
2022-08-03T02:04:45.270Z,98972.13
2022-08-03T02:07:34.357Z,98984.19
2022-08-03T02:10:35.538Z,98968.13
2022-08-03T02:13:24.558Z,98963.06
2022-08-03T02:16:12.799Z,98986.22
2022-08-03T02:19:01.446Z,98996.53
2022-08-03T02:21:56.721Z,98952.09
2022-08-03T02:24:50.923Z,99017.47
2022-08-03T02:27:43.746Z,98991.78
2022-08-03T02:30:39.094Z,98982.31
2022-08-03T02:33:30.246Z,98992.78
2022-08-03T02:36:21.927Z,99012.59
2022-08-03T02:39:11.680Z,99020.38
2022-08-03T02:42:03.444Z,98993.78
2022-08-03T02:44:51.306Z,98980.88
2022-08-03T02:47:53.198Z,98993.75
2022-08-03T02:50:44.435Z,98982.44
2022-08-03T02:53:31.757Z,98991.13
2022-08-03T02:56:19.163Z,98968.09
2022-08-03T02:59:06.970Z,98990.44
2022-08-03T03:01:55.374Z,98984.50
2022-08-03T03:05:52.562Z,98993.25
2022-08-03T03:07:51.998Z,98958.91
2022-08-03T03:10:40.868Z,98963.25
2022-08-03T03:13:30.356Z,98971.97
2022-08-03T03:16:17.877Z,98984.09
2022-08-03T03:19:04.901Z,98989.13
2022-08-03T03:21:52.279Z,98968.56
2022-08-03T03:24:41.528Z,98988.34
2022-08-03T03:27:28.736Z,98995.28
2022-08-03T03:30:16.447Z,98966.06
2022-08-03T03:33:02.947Z,98977.34
2022-08-03T03:35:51.553Z,98979.13
2022-08-03T03:38:38.025Z,99001.50
2022-08-03T03:41:24.550Z,98991.41
2022-08-03T03:44:11.205Z,98947.69
2022-08-03T03:46:58.148Z,98968.28
2022-08-03T03:49:45.474Z,98998.47
2022-08-03T03:52:32.809Z,98993.41
2022-08-03T03:55:19.278Z,99014.00
2022-08-03T03:58:06.297Z,98985.69
2022-08-03T04:00:53.866Z,98982.25
2022-08-03T04:03:40.339Z,99002.03
2022-08-03T04:06:45.255Z,98972.81
2022-08-03T04:09:53.616Z,98964.22
2022-08-03T04:12:50.433Z,98987.47
2022-08-03T04:15:39.762Z,98981.41
2022-08-03T04:18:29.736Z,98999.53
2022-08-03T04:21:19.227Z,99014.22
2022-08-03T04:24:09.007Z,99003.84
2022-08-03T04:26:57.702Z,99033.03
2022-08-03T04:29:49.183Z,99022.50
2022-08-03T04:32:40.882Z,99004.47
2022-08-03T04:36:01.926Z,98985.59
2022-08-03T04:38:51.138Z,99033.50
2022-08-03T04:42:07.212Z,99020.59
2022-08-03T04:44:47.725Z,98995.31
2022-08-03T04:47:34.739Z,98961.75
2022-08-03T04:50:21.982Z,98997.56
2022-08-03T04:53:23.570Z,99013.72
2022-08-03T04:56:10.081Z,99016.00
2022-08-03T04:58:56.546Z,98997.44
2022-08-03T05:01:43.444Z,99008.06
2022-08-03T05:04:30.217Z,99016.69
2022-08-03T05:07:24.153Z,99013.94
2022-08-03T05:10:14.886Z,99029.59
2022-08-03T05:13:02.808Z,98999.09
2022-08-03T05:15:49.397Z,98992.69
2022-08-03T05:18:36.043Z,99024.59
2022-08-03T05:21:22.714Z,99009.63
2022-08-03T05:24:08.926Z,99012.63
2022-08-03T05:26:55.190Z,99021.78
2022-08-03T05:29:41.852Z,99015.19
2022-08-03T05:32:28.467Z,99037.28
2022-08-03T05:36:02.021Z,99023.00
2022-08-03T05:38:28.298Z,98995.28
2022-08-03T05:41:22.974Z,98981.56
2022-08-03T05:44:10.639Z,99027.84
2022-08-03T05:46:57.019Z,99024.53
2022-08-03T05:49:43.655Z,99019.66
2022-08-03T05:52:30.682Z,99022.50
2022-08-03T05:55:17.701Z,99017.88
2022-08-03T05:58:04.331Z,99018.69
2022-08-03T06:00:51.353Z,99000.47
2022-08-03T06:03:37.771Z,99013.94
2022-08-03T06:06:25.369Z,99016.41
2022-08-03T06:09:13.765Z,99000.69
2022-08-03T06:12:00.229Z,99012.28
2022-08-03T06:14:46.786Z,99017.72
2022-08-03T06:17:37.728Z,99020.44
2022-08-03T06:20:27.387Z,99013.75
2022-08-03T06:23:17.711Z,99018.63
2022-08-03T06:26:04.630Z,98996.41
2022-08-03T06:28:51.367Z,98998.84
2022-08-03T06:31:39.678Z,99017.09
2022-08-03T06:34:33.596Z,99017.44
2022-08-03T06:37:21.570Z,99018.06
2022-08-03T06:40:08.408Z,99022.06
2022-08-03T06:42:55.451Z,98991.69
2022-08-03T06:45:42.453Z,99008.81
2022-08-03T06:48:28.942Z,99007.41
2022-08-03T06:51:15.419Z,99006.78
2022-08-03T06:54:01.720Z,99012.88
2022-08-03T06:56:48.592Z,99002.91
2022-08-03T07:00:09.141Z,99026.91
2022-08-03T07:02:41.484Z,99010.53
2022-08-03T07:05:28.367Z,99009.19
2022-08-03T07:08:15.618Z,99039.97
2022-08-03T07:11:01.921Z,99011.50
2022-08-03T07:13:48.446Z,99010.38
2022-08-03T07:16:35.027Z,99011.31
2022-08-03T07:19:21.652Z,99002.88
2022-08-03T07:22:08.750Z,98989.47
2022-08-03T07:24:56.745Z,98993.22
2022-08-03T07:27:46.023Z,98978.41
2022-08-03T07:30:36.526Z,99014.06
2022-08-03T07:33:22.763Z,99014.19
2022-08-03T07:36:09.089Z,99025.44
2022-08-03T07:38:55.401Z,98991.25
2022-08-03T07:41:41.546Z,98993.66
2022-08-03T07:44:28.245Z,98999.69
2022-08-03T07:47:25.815Z,99006.09
2022-08-03T07:50:22.984Z,98975.53
2022-08-03T07:53:09.494Z,99005.53
2022-08-03T07:55:56.921Z,99003.09
2022-08-03T07:58:43.439Z,98998.09
2022-08-03T08:01:29.841Z,98986.22
2022-08-03T08:04:16.796Z,99001.56
2022-08-03T08:07:03.328Z,99017.25
2022-08-03T08:09:49.585Z,98998.78
2022-08-03T08:12:36.406Z,98992.91
2022-08-03T08:15:23.358Z,98986.84
2022-08-03T08:18:09.805Z,98981.50
2022-08-03T08:20:56.213Z,98985.56
2022-08-03T08:23:46.248Z,98972.97
2022-08-03T08:26:44.180Z,98973.47
2022-08-03T08:29:30.654Z,98988.47
2022-08-03T08:32:17.025Z,99005.34
2022-08-03T08:35:08.006Z,98990.47
2022-08-03T08:37:54.622Z,98983.50
2022-08-03T08:40:40.946Z,98988.72
2022-08-03T08:43:28.164Z,98985.22
2022-08-03T08:46:22.837Z,98989.88
2022-08-03T08:49:12.112Z,98990.53
2022-08-03T08:52:01.014Z,99004.88
2022-08-03T08:54:47.914Z,98998.34
2022-08-03T08:57:43.564Z,98983.81
2022-08-03T09:00:31.120Z,98965.16
2022-08-03T09:03:26.191Z,98981.44
2022-08-03T09:06:16.885Z,98964.56
2022-08-03T09:09:03.542Z,98964.69
2022-08-03T09:11:52.432Z,98990.66
2022-08-03T09:15:14.736Z,98980.44
2022-08-03T09:18:03.156Z,98987.13
2022-08-03T09:20:49.557Z,98985.53
2022-08-03T09:24:02.219Z,98981.19
2022-08-03T09:26:52.238Z,98980.78
2022-08-03T09:29:40.343Z,98950.59
2022-08-03T09:32:26.957Z,98971.06
2022-08-03T09:35:14.760Z,98954.66
2022-08-03T09:38:26.098Z,98961.31
2022-08-03T09:41:18.685Z,98974.44
2022-08-03T09:44:05.141Z,98962.41
2022-08-03T09:46:53.941Z,98976.53
2022-08-03T09:49:41.609Z,98965.88
2022-08-03T09:52:50.019Z,98971.09
2022-08-03T09:56:32.746Z,98957.06
2022-08-03T09:59:00.299Z,98962.94
2022-08-03T10:01:46.601Z,98961.59
2022-08-03T10:04:33.779Z,98979.88
2022-08-03T10:07:22.664Z,98954.22
2022-08-03T10:10:29.060Z,98943.00
2022-08-03T10:13:19.102Z,98960.66
2022-08-03T10:16:22.021Z,98928.19
2022-08-03T10:19:11.509Z,98933.63
2022-08-03T10:22:04.120Z,98951.84
2022-08-03T10:24:59.820Z,98953.13
2022-08-03T10:27:50.827Z,98922.84
2022-08-03T10:30:41.054Z,98911.03
2022-08-03T10:33:51.834Z,98943.03
2022-08-03T10:36:39.980Z,98917.25
2022-08-03T10:39:29.679Z,98913.03
2022-08-03T10:42:16.176Z,98929.06
2022-08-03T10:45:09.562Z,98933.16
2022-08-03T10:47:57.591Z,98884.16
2022-08-03T10:50:44.304Z,98911.47
2022-08-03T10:53:40.252Z,98928.69
2022-08-03T10:56:51.349Z,98915.34
2022-08-03T10:59:46.652Z,98917.59
2022-08-03T11:03:04.179Z,98911.28
2022-08-03T11:05:52.175Z,98895.56
2022-08-03T11:08:38.612Z,98901.44
2022-08-03T11:11:26.420Z,98910.72
2022-08-03T11:14:21.381Z,98873.22
2022-08-03T11:17:14.189Z,98888.59
2022-08-03T11:20:01.226Z,98883.56
2022-08-03T11:22:53.971Z,98888.47
2022-08-03T11:26:08.419Z,98891.28
2022-08-03T11:29:27.970Z,98893.81
2022-08-03T11:32:40.159Z,98895.22
2022-08-03T11:35:35.914Z,98857.47
2022-08-03T11:38:24.587Z,98891.66
2022-08-03T11:41:44.885Z,98895.03
2022-08-03T11:44:50.779Z,98884.63
2022-08-03T11:47:50.658Z,98895.59
2022-08-03T11:50:37.981Z,98878.22
2022-08-03T11:53:24.472Z,98855.31
2022-08-03T11:56:12.998Z,98842.47
2022-08-03T11:59:18.568Z,98854.13
2022-08-03T12:02:16.867Z,98873.69
2022-08-03T12:05:03.635Z,98857.19
2022-08-03T12:08:04.284Z,98846.34
2022-08-03T12:10:54.306Z,98865.81
2022-08-03T12:14:35.821Z,98862.88
2022-08-03T12:16:54.415Z,98861.34
2022-08-03T12:19:44.672Z,98824.09
2022-08-03T12:22:37.221Z,98838.25
2022-08-03T12:25:38.623Z,98825.78
2022-08-03T12:28:36.972Z,98845.41
2022-08-03T12:31:25.057Z,98829.59
2022-08-03T12:34:12.062Z,98833.75
2022-08-03T12:36:59.232Z,98830.69
2022-08-03T12:40:02.056Z,98806.00
2022-08-03T12:42:50.495Z,98838.50
2022-08-03T12:45:36.962Z,98841.34
2022-08-03T12:48:23.560Z,98844.78
2022-08-03T12:51:14.218Z,98809.63
2022-08-03T12:54:02.051Z,98822.09
2022-08-03T12:57:08.335Z,98824.34
2022-08-03T12:59:55.906Z,98809.69
2022-08-03T13:02:46.352Z,98813.22
2022-08-03T13:05:44.559Z,98814.09
2022-08-03T13:08:30.942Z,98797.53
2022-08-03T13:11:53.628Z,98830.97
2022-08-03T13:14:33.370Z,98809.28
2022-08-03T13:17:20.132Z,98820.53
2022-08-03T13:20:07.308Z,98813.78
2022-08-03T13:22:56.021Z,98814.66
2022-08-03T13:25:55.262Z,98817.63
2022-08-03T13:28:42.622Z,98832.47
2022-08-03T13:31:29.290Z,98809.31
2022-08-03T13:34:18.703Z,98816.91
2022-08-03T13:37:10.217Z,98794.19
2022-08-03T13:39:59.027Z,98807.13
2022-08-03T13:42:47.189Z,98792.53
2022-08-03T13:45:33.730Z,98784.78
2022-08-03T13:48:35.785Z,98795.31
2022-08-03T13:51:23.478Z,98807.22
2022-08-03T13:54:09.878Z,98778.59
2022-08-03T13:58:01.146Z,98749.94
2022-08-03T14:00:04.562Z,98788.34
2022-08-03T14:02:50.790Z,98775.19
2022-08-03T14:05:38.597Z,98770.88
2022-08-03T14:08:25.134Z,98779.97
2022-08-03T14:11:12.068Z,98775.22
2022-08-03T14:13:59.120Z,98767.78
2022-08-03T14:16:45.652Z,98762.09
2022-08-03T14:19:52.533Z,98784.63
2022-08-03T14:22:40.280Z,98742.72
2022-08-03T14:25:26.860Z,98749.06
2022-08-03T14:28:13.333Z,98758.25
2022-08-03T14:30:59.911Z,98774.09
2022-08-03T14:33:46.474Z,98760.03
2022-08-03T14:36:33.024Z,98780.56
2022-08-03T14:39:19.201Z,98744.38
2022-08-03T14:42:06.091Z,98771.25
2022-08-03T14:44:52.255Z,98752.94
2022-08-03T14:50:10.361Z,98773.53
2022-08-03T14:50:50.730Z,98764.00
2022-08-03T14:53:37.792Z,98768.28
2022-08-03T14:56:24.114Z,98766.66
2022-08-03T14:59:10.515Z,98763.94
2022-08-03T15:02:06.230Z,98752.09
2022-08-03T15:04:54.202Z,98721.47
2022-08-03T15:07:40.526Z,98749.50
2022-08-03T15:10:27.190Z,98740.94
2022-08-03T15:13:31.046Z,98728.09
2022-08-03T15:16:17.391Z,98727.75
2022-08-03T15:19:04.898Z,98726.56
2022-08-03T15:22:10.237Z,98721.97
2022-08-03T15:24:59.536Z,98695.53
2022-08-03T15:28:04.094Z,98717.94
2022-08-03T15:30:54.665Z,98712.69
2022-08-03T15:33:41.100Z,98705.44
2022-08-03T15:36:27.743Z,98724.19
2022-08-03T15:39:14.316Z,98698.00
2022-08-03T15:42:00.860Z,98710.00
2022-08-03T15:44:47.179Z,98693.00
2022-08-03T15:47:33.447Z,98726.88
2022-08-03T15:50:19.885Z,98708.56
2022-08-03T15:53:06.203Z,98700.88
2022-08-03T15:55:52.448Z,98706.56
2022-08-03T15:59:03.435Z,98706.94
2022-08-03T16:01:48.461Z,98694.16
2022-08-03T16:04:34.999Z,98697.69
2022-08-03T16:07:41.373Z,98663.06
2022-08-03T16:10:48.127Z,98699.75
2022-08-03T16:14:13.119Z,98673.09
2022-08-03T16:16:41.558Z,98677.84
2022-08-03T16:19:32.824Z,98648.13
2022-08-03T16:22:20.179Z,98688.16
2022-08-03T16:25:13.769Z,98677.69
2022-08-03T16:28:08.047Z,98684.06
2022-08-03T16:30:59.867Z,98662.81
2022-08-03T16:33:46.145Z,98686.09
2022-08-03T16:36:34.913Z,98678.44
2022-08-03T16:39:21.461Z,98655.13
2022-08-03T16:42:08.004Z,98660.47
2022-08-03T16:44:54.616Z,98635.50
2022-08-03T16:47:40.857Z,98642.41
2022-08-03T16:50:27.391Z,98672.03
2022-08-03T16:53:16.788Z,98675.09
2022-08-03T16:56:09.530Z,98678.72
2022-08-03T16:58:56.646Z,98674.00
2022-08-03T17:01:46.203Z,98680.72
2022-08-03T17:04:33.995Z,98640.56
2022-08-03T17:07:21.526Z,98669.34
2022-08-03T17:10:09.270Z,98654.16
2022-08-03T17:12:55.582Z,98620.06
2022-08-03T17:15:57.939Z,98642.88
2022-08-03T17:19:02.091Z,98681.44
2022-08-03T17:22:09.092Z,98666.09
2022-08-03T17:24:58.262Z,98651.50
2022-08-03T17:28:48.490Z,98658.69
2022-08-03T17:31:23.188Z,98664.34
2022-08-03T17:34:19.405Z,98658.34
2022-08-03T17:37:06.417Z,98645.28
2022-08-03T17:40:11.619Z,98663.13
2022-08-03T17:44:13.510Z,98685.06
2022-08-03T17:46:12.171Z,98671.63
2022-08-03T17:48:58.608Z,98657.78
2022-08-03T17:51:57.554Z,98666.97
2022-08-03T17:55:57.277Z,98690.59
2022-08-03T17:58:25.657Z,98692.19
2022-08-03T18:02:06.150Z,98687.91
2022-08-03T18:04:45.214Z,98703.16
2022-08-03T18:07:47.065Z,98709.66
2022-08-03T18:10:36.365Z,98708.00
2022-08-03T18:14:01.103Z,98684.28
2022-08-03T18:17:06.132Z,98693.13
2022-08-03T18:20:02.028Z,98687.41
2022-08-03T18:22:55.571Z,98700.19
2022-08-03T18:25:49.551Z,98699.31
2022-08-03T18:28:40.874Z,98700.88
2022-08-03T18:31:59.486Z,98712.19
2022-08-03T18:34:35.168Z,98704.78
2022-08-03T18:37:25.574Z,98716.50
2022-08-03T18:40:13.166Z,98703.97
2022-08-03T18:43:08.025Z,98711.00
2022-08-03T18:45:58.344Z,98712.31
2022-08-03T18:48:59.430Z,98708.59
2022-08-03T18:52:03.621Z,98715.78
2022-08-03T18:55:14.053Z,98711.63
2022-08-03T18:58:19.717Z,98713.22
2022-08-03T19:01:57.948Z,98704.34
2022-08-03T19:04:29.335Z,98709.97
2022-08-03T19:07:26.059Z,98686.31
2022-08-03T19:10:15.668Z,98700.22
2022-08-03T19:13:30.760Z,98721.63
2022-08-03T19:16:35.846Z,98715.78
2022-08-03T19:19:27.195Z,98673.03
2022-08-03T19:22:32.929Z,98702.41
2022-08-03T19:25:19.629Z,98718.25
2022-08-03T19:28:07.134Z,98721.94
2022-08-03T19:30:56.558Z,98709.53
2022-08-03T19:33:57.578Z,98718.53
2022-08-03T19:36:44.994Z,98702.25
2022-08-03T19:39:33.714Z,98717.28
2022-08-03T19:42:27.901Z,98730.13
2022-08-03T19:45:21.272Z,98718.09
2022-08-03T19:48:11.686Z,98718.09
2022-08-03T19:50:59.092Z,98736.97
2022-08-03T19:53:49.237Z,98729.34
2022-08-03T19:56:41.944Z,98728.50
2022-08-03T19:59:29.565Z,98721.91
2022-08-03T20:02:17.487Z,98703.59
2022-08-03T20:08:21.082Z,98735.84
2022-08-03T20:11:09.003Z,98703.34
2022-08-03T20:13:58.144Z,98712.34
2022-08-03T20:16:45.491Z,98721.63
2022-08-03T20:19:35.098Z,98735.31
2022-08-03T20:22:27.859Z,98739.47
2022-08-03T20:25:20.816Z,98729.66
2022-08-03T20:28:14.120Z,98699.47
2022-08-03T20:31:02.440Z,98750.06
2022-08-03T20:33:49.362Z,98744.63
2022-08-03T20:36:36.623Z,98733.50
2022-08-03T20:39:24.813Z,98745.00
2022-08-03T20:42:14.087Z,98733.81
2022-08-03T20:45:13.827Z,98743.53
2022-08-03T20:48:15.999Z,98754.50
2022-08-03T20:51:19.349Z,98713.09
2022-08-03T20:54:23.052Z,98746.88
2022-08-03T20:57:14.449Z,98729.47
2022-08-03T21:00:07.704Z,98738.00
2022-08-03T21:02:54.571Z,98734.38
2022-08-03T21:05:51.135Z,98730.41
2022-08-03T21:08:46.924Z,98744.19
2022-08-03T21:11:50.578Z,98753.03
2022-08-03T21:13:08.515Z,98723.78
2022-08-03T21:14:52.511Z,98731.63
2022-08-03T21:17:46.911Z,98761.28
2022-08-03T21:20:34.749Z,98754.63
2022-08-03T21:23:40.240Z,98729.97
2022-08-03T21:26:32.983Z,98732.63
2022-08-03T21:29:20.154Z,98759.44
2022-08-03T21:32:07.532Z,98739.28
2022-08-03T21:34:55.030Z,98757.00
2022-08-03T21:37:42.720Z,98748.06
2022-08-03T21:40:29.141Z,98756.72
2022-08-03T21:43:15.846Z,98737.25
2022-08-03T21:46:05.390Z,98758.09
2022-08-03T21:48:56.302Z,98752.47
2022-08-03T21:51:42.887Z,98751.56
2022-08-03T21:54:35.016Z,98755.84
2022-08-03T21:57:25.113Z,98762.44
2022-08-03T22:00:17.785Z,98702.19
2022-08-03T22:03:17.397Z,98753.09
2022-08-03T22:06:05.109Z,98701.50
2022-08-03T22:08:52.827Z,98759.63
2022-08-03T22:11:39.274Z,98757.41
2022-08-03T22:14:25.759Z,98702.50
2022-08-03T22:17:12.895Z,98747.28
2022-08-03T22:20:19.456Z,98759.69
2022-08-03T22:23:07.178Z,98757.22
2022-08-03T22:25:56.890Z,98760.78
2022-08-03T22:28:43.801Z,98757.81
2022-08-03T22:31:57.434Z,98757.09
2022-08-03T22:34:42.436Z,98743.88
2022-08-03T22:37:31.588Z,98756.91
2022-08-03T22:40:18.079Z,98720.56
2022-08-03T22:43:06.044Z,98726.53
2022-08-03T22:46:10.540Z,98761.06
2022-08-03T22:48:59.698Z,98724.81
2022-08-03T22:51:47.172Z,98737.91
2022-08-03T22:54:35.348Z,98729.59
2022-08-03T22:57:22.150Z,98739.59
2022-08-03T23:00:11.579Z,98761.06
2022-08-03T23:03:00.219Z,98711.50
2022-08-03T23:06:02.367Z,98741.25
2022-08-03T23:08:50.386Z,98738.25
2022-08-03T23:11:45.768Z,98770.28
2022-08-03T23:14:38.451Z,98747.69
2022-08-03T23:17:29.857Z,98742.66
2022-08-03T23:20:16.914Z,98774.38
2022-08-03T23:23:05.064Z,98729.44
2022-08-03T23:25:51.954Z,98764.44
2022-08-03T23:28:39.269Z,98743.50
2022-08-03T23:31:31.470Z,98739.47
2022-08-03T23:34:36.651Z,98767.16
2022-08-03T23:37:24.908Z,98734.75
2022-08-03T23:40:13.709Z,98767.44
2022-08-03T23:43:01.891Z,98736.88
2022-08-03T23:45:49.474Z,98761.16
2022-08-03T23:48:36.002Z,98781.91
2022-08-03T23:51:31.454Z,98781.88
2022-08-03T23:54:23.713Z,98781.16
2022-08-03T23:57:20.730Z,98736.13
